Portada
METAR-TAF:

METAR-TAF

Aeropuertos :

Gibraltar, Gibraltar

Aeropuerto de Gibraltar

latitud: 36-09N, longitud: 005-21W, altitud: 5 m

Observación

El informe se hizo hace 38 minutos, a las 19:50 UTC
Viento 6 kt del norte-noreste
Temperatura 14°C
Humedad 82%
Presión 1022 hPa
Visibilidad 10 km o más

METAR: LXGB 161950Z AUTO 03006KT 9999 // BKN022/// 14/11 Q1022

Hora: 21:28 (20:28 UTC)

Pronóstico

El informe se hizo hace 6 horas y 52 minutos, a las 13:36 UTC
Pronóstico válido del 16 a las 15 UTC al 16 a las 22 UTC
Viento 6 kt del este-noreste
Visibilidad 10 km o más
Escasas nubes a una altura de 2500 ft

TAF: LXGB 161336Z 1615/1622 06006KT 9999 FEW025

Observaciones y pronósticos meteorológicos de más de 4000 aeropuertos (mensajes METAR y TAF).

Los puntos amarillos y rojos representan las estaciones disponibles.

Ponga el ratón en el punto deseado para ver el nombre de la estación.

Haga clic para ver las observaciones y los pronósticos meteorológicos.

Para cambiar el mapa : haga clic en los botones verdes con una cruz de color negro para hacer un zoom, en el botón verde con un guión para alejar o en las flechas verdes para mapas adyacentes.


METAR-TAF: